createdAt,value
2023-02-19T00:00:01.425Z,100029.47
2023-02-19T00:00:48.233Z,100033.28
2023-02-19T00:01:46.228Z,100031.09
2023-02-19T00:02:33.076Z,100027.09
2023-02-19T00:03:19.939Z,100029.81
2023-02-19T00:04:09.965Z,100029.69
2023-02-19T00:04:56.782Z,100033.44
2023-02-19T00:05:43.616Z,100028.72
2023-02-19T00:06:31.714Z,100032.78
2023-02-19T00:07:18.545Z,100030.22
2023-02-19T00:08:05.361Z,100029.00
2023-02-19T00:08:52.393Z,100032.78
2023-02-19T00:09:39.194Z,100033.78
2023-02-19T00:10:26.034Z,100034.81
2023-02-19T00:11:15.946Z,100036.59
2023-02-19T00:12:02.785Z,100027.22
2023-02-19T00:12:49.596Z,100022.66
2023-02-19T00:13:38.007Z,100015.84
2023-02-19T00:14:24.792Z,100007.94
2023-02-19T00:15:11.623Z,100002.16
2023-02-19T00:15:58.499Z,100007.88
2023-02-19T00:16:45.498Z,100006.72
2023-02-19T00:17:32.494Z,100000.97
2023-02-19T00:18:19.375Z,100001.62
2023-02-19T00:19:08.691Z,100005.41
2023-02-19T00:19:55.504Z,100009.44
2023-02-19T00:20:42.323Z,100020.25
2023-02-19T00:21:29.904Z,100013.37
2023-02-19T00:22:16.714Z,100017.13
2023-02-19T00:23:03.574Z,100015.59
2023-02-19T00:23:52.014Z,100024.09
2023-02-19T00:24:38.970Z,100013.84
2023-02-19T00:25:25.861Z,100019.69
2023-02-19T00:26:18.633Z,100020.41
2023-02-19T00:27:05.758Z,100018.22
2023-02-19T00:27:52.575Z,100013.78
2023-02-19T00:28:39.810Z,100024.13
2023-02-19T00:29:26.670Z,100011.75
2023-02-19T00:30:13.730Z,100021.13
2023-02-19T00:31:13.818Z,100020.78
2023-02-19T00:32:00.927Z,100020.91
2023-02-19T00:32:51.485Z,100020.59
2023-02-19T00:33:38.318Z,100025.56
2023-02-19T00:34:25.193Z,100028.47
2023-02-19T00:35:12.076Z,100027.37
2023-02-19T00:36:03.246Z,100028.25
2023-02-19T00:36:50.076Z,100032.94
2023-02-19T00:37:36.920Z,100025.31
2023-02-19T00:38:23.718Z,100023.28
2023-02-19T00:39:14.295Z,100030.00
2023-02-19T00:40:00.977Z,100025.25
2023-02-19T00:40:47.828Z,100026.34
2023-02-19T00:41:34.814Z,100023.09
2023-02-19T00:42:21.726Z,100026.00
2023-02-19T00:43:08.599Z,100018.56
2023-02-19T00:44:03.149Z,100014.53
2023-02-19T00:44:49.943Z,100019.38
2023-02-19T00:45:36.718Z,100025.38
2023-02-19T00:46:26.555Z,100022.28
2023-02-19T00:47:13.509Z,100019.22
2023-02-19T00:48:00.319Z,100022.63
2023-02-19T00:48:47.533Z,100010.94
2023-02-19T00:49:34.339Z,100014.13
2023-02-19T00:50:21.428Z,100005.81
2023-02-19T00:51:08.616Z,100006.41
2023-02-19T00:51:55.701Z,100017.31
2023-02-19T00:52:42.513Z,100017.75
2023-02-19T00:53:29.298Z,100013.00
2023-02-19T00:54:16.641Z,100010.66
2023-02-19T00:55:04.117Z,100008.62
2023-02-19T00:55:50.908Z,100011.69
2023-02-19T00:56:37.769Z,100010.41
2023-02-19T00:57:24.631Z,100002.75
2023-02-19T00:58:11.484Z,100005.25
2023-02-19T00:58:58.363Z,100012.16
2023-02-19T00:59:45.188Z,100017.00
2023-02-19T01:00:33.698Z,100020.25
2023-02-19T01:01:21.175Z,100026.59
2023-02-19T01:02:08.007Z,100027.81
2023-02-19T01:02:54.897Z,100028.19
2023-02-19T01:03:42.175Z,100029.75
2023-02-19T01:04:29.089Z,100028.28
2023-02-19T01:05:16.060Z,100021.56
2023-02-19T01:06:04.064Z,100011.56
2023-02-19T01:06:50.964Z,100005.16
2023-02-19T01:07:38.385Z,100012.31
2023-02-19T01:08:25.506Z,100009.63
2023-02-19T01:09:12.424Z,100000.59
2023-02-19T01:09:59.279Z,99999.19
2023-02-19T01:10:46.665Z,100009.19
2023-02-19T01:11:33.506Z,100007.31
2023-02-19T01:12:20.417Z,100005.16
2023-02-19T01:13:07.268Z,100003.56
2023-02-19T01:13:58.646Z,100005.09
2023-02-19T01:14:45.647Z,100007.03
2023-02-19T01:15:35.464Z,100007.66
2023-02-19T01:16:24.976Z,100010.53
2023-02-19T01:17:11.816Z,100012.94
2023-02-19T01:17:58.634Z,100008.50
2023-02-19T01:18:46.133Z,100011.19
2023-02-19T01:19:33.023Z,100016.94
2023-02-19T01:20:19.934Z,100007.66
2023-02-19T01:21:09.073Z,100005.63
2023-02-19T01:21:56.095Z,100005.78
2023-02-19T01:22:42.921Z,100011.38
2023-02-19T01:23:29.802Z,100006.53
2023-02-19T01:24:16.935Z,100000.09
2023-02-19T01:25:03.852Z,100001.03
2023-02-19T01:25:50.745Z,100005.22
2023-02-19T01:26:37.660Z,100000.37
2023-02-19T01:27:24.474Z,100003.91
2023-02-19T01:28:11.474Z,100001.75
2023-02-19T01:29:01.843Z,99999.88
2023-02-19T01:29:48.662Z,99994.78
2023-02-19T01:30:37.282Z,99996.62
2023-02-19T01:31:25.606Z,99998.66
2023-02-19T01:32:12.745Z,99994.88
2023-02-19T01:32:59.602Z,99994.88
2023-02-19T01:33:47.871Z,99996.44
2023-02-19T01:34:34.870Z,100003.56
2023-02-19T01:35:21.712Z,100006.59
2023-02-19T01:36:08.932Z,100000.06
2023-02-19T01:36:55.842Z,99993.47
2023-02-19T01:37:42.713Z,99992.50
2023-02-19T01:38:29.531Z,99993.16
2023-02-19T01:39:16.434Z,99988.25
2023-02-19T01:40:03.572Z,99985.72
2023-02-19T01:40:59.870Z,99982.09
2023-02-19T01:41:46.714Z,99987.97
2023-02-19T01:42:33.562Z,99986.78
2023-02-19T01:43:20.403Z,99987.69
2023-02-19T01:44:28.995Z,99985.37
2023-02-19T01:45:26.289Z,99990.22
2023-02-19T01:46:13.123Z,99985.56
2023-02-19T01:46:59.995Z,99976.97
2023-02-19T01:47:48.234Z,99973.44
2023-02-19T01:48:37.933Z,99976.78
2023-02-19T01:49:28.290Z,99976.13
2023-02-19T01:50:15.233Z,99974.56
2023-02-19T01:51:18.219Z,99966.91
2023-02-19T01:52:10.525Z,99968.41
2023-02-19T01:52:57.523Z,99972.28
2023-02-19T01:53:47.129Z,99978.91
2023-02-19T01:54:37.609Z,99969.13
2023-02-19T01:55:24.731Z,99970.44
2023-02-19T01:56:12.727Z,99976.03
2023-02-19T01:57:00.244Z,99972.50
2023-02-19T01:57:48.969Z,99982.19
2023-02-19T01:58:37.007Z,99969.34
2023-02-19T01:59:23.856Z,99976.59
2023-02-19T02:00:13.556Z,99974.34
2023-02-19T02:01:05.322Z,99971.00
2023-02-19T02:01:52.286Z,99975.22
2023-02-19T02:02:40.585Z,99963.19
2023-02-19T02:03:27.486Z,99967.19
2023-02-19T02:04:15.099Z,99968.97
2023-02-19T02:05:02.471Z,99957.50
2023-02-19T02:06:09.715Z,99968.69
2023-02-19T02:06:57.056Z,99968.50
2023-02-19T02:08:02.447Z,99965.06
2023-02-19T02:09:14.115Z,99949.38
2023-02-19T02:10:19.806Z,99960.84
2023-02-19T02:11:06.728Z,99977.66
2023-02-19T02:11:53.648Z,99976.44
2023-02-19T02:12:40.517Z,99976.16
2023-02-19T02:13:27.483Z,99975.78
2023-02-19T02:14:15.178Z,99982.91
2023-02-19T02:15:02.045Z,99984.00
2023-02-19T02:16:07.751Z,99984.47
2023-02-19T02:17:04.028Z,99991.34
2023-02-19T02:17:57.759Z,99994.72
2023-02-19T02:19:08.907Z,99985.41
2023-02-19T02:20:07.268Z,99989.78
2023-02-19T02:21:27.744Z,99981.03
2023-02-19T02:22:21.488Z,99980.53
2023-02-19T02:23:16.872Z,99976.00
2023-02-19T02:24:24.711Z,99980.19
2023-02-19T02:25:28.459Z,99977.84
2023-02-19T02:26:33.497Z,99980.44
2023-02-19T02:27:38.617Z,99983.53
2023-02-19T02:28:59.038Z,99976.19
2023-02-19T02:30:05.991Z,99975.69
2023-02-19T02:31:05.245Z,99973.66
2023-02-19T02:31:59.394Z,99976.34
2023-02-19T02:32:55.198Z,99970.69
2023-02-19T02:33:50.509Z,99961.09
2023-02-19T02:34:45.821Z,99957.72
2023-02-19T02:35:42.691Z,99957.53
2023-02-19T02:36:32.132Z,99957.16
2023-02-19T02:37:19.161Z,99956.78
2023-02-19T02:38:08.452Z,99966.09
2023-02-19T02:38:55.751Z,99962.84
2023-02-19T02:39:43.268Z,99965.53
2023-02-19T02:40:30.595Z,99959.38
2023-02-19T02:41:17.542Z,99969.72
2023-02-19T02:42:30.812Z,99956.69
2023-02-19T02:43:17.777Z,99955.66
2023-02-19T02:44:04.908Z,99952.97
2023-02-19T02:45:10.583Z,99942.31
2023-02-19T02:45:57.513Z,99948.50
2023-02-19T02:46:45.630Z,99940.66
2023-02-19T02:47:41.516Z,99938.97
2023-02-19T02:48:41.418Z,99935.41
2023-02-19T02:49:28.333Z,99937.25
2023-02-19T02:50:28.160Z,99932.91
2023-02-19T02:51:23.849Z,99931.34
2023-02-19T02:52:30.728Z,99930.38
2023-02-19T02:53:44.681Z,99931.97
2023-02-19T02:54:52.400Z,99930.47
2023-02-19T02:55:43.989Z,99936.81
2023-02-19T02:56:31.369Z,99932.63
2023-02-19T02:57:19.214Z,99928.62
2023-02-19T02:58:06.588Z,99931.97
2023-02-19T02:58:54.720Z,99924.69
2023-02-19T02:59:42.722Z,99930.94
2023-02-19T03:00:50.135Z,99929.44
2023-02-19T03:01:57.186Z,99922.75
2023-02-19T03:02:44.205Z,99923.56
2023-02-19T03:03:32.778Z,99929.81
2023-02-19T03:05:09.230Z,99930.38
2023-02-19T03:06:01.329Z,99922.25
2023-02-19T03:06:49.471Z,99921.03
2023-02-19T03:07:40.038Z,99922.91
2023-02-19T03:08:32.870Z,99923.66
2023-02-19T03:09:30.466Z,99928.22
2023-02-19T03:10:21.137Z,99923.38
2023-02-19T03:11:27.679Z,99921.25
2023-02-19T03:12:34.413Z,99916.50
2023-02-19T03:13:53.008Z,99916.75
2023-02-19T03:15:03.025Z,99921.25
2023-02-19T03:16:14.073Z,99914.16
2023-02-19T03:17:25.091Z,99915.19
2023-02-19T03:18:31.268Z,99919.94
2023-02-19T03:19:19.995Z,99925.03
2023-02-19T03:20:11.423Z,99929.25
2023-02-19T03:20:59.586Z,99912.75
2023-02-19T03:22:01.406Z,99926.53
2023-02-19T03:22:49.610Z,99919.38
2023-02-19T03:23:55.758Z,99922.91
2023-02-19T03:25:06.487Z,99915.00
2023-02-19T03:26:05.614Z,99926.09
2023-02-19T03:26:54.281Z,99919.47
2023-02-19T03:27:43.114Z,99919.47
2023-02-19T03:28:51.774Z,99916.69
2023-02-19T03:29:40.364Z,99915.75
2023-02-19T03:30:33.628Z,99915.19
2023-02-19T03:31:23.021Z,99920.31
2023-02-19T03:32:17.970Z,99919.56
2023-02-19T03:33:09.589Z,99921.03
2023-02-19T03:34:02.436Z,99918.19
2023-02-19T03:34:54.675Z,99916.59
2023-02-19T03:35:57.845Z,99916.41
2023-02-19T03:36:51.334Z,99915.47
2023-02-19T03:37:43.493Z,99908.41
2023-02-19T03:38:52.224Z,99912.94
2023-02-19T03:39:44.622Z,99909.41
2023-02-19T03:40:35.454Z,99912.28
2023-02-19T03:41:41.582Z,99912.50
2023-02-19T03:43:05.674Z,99919.31
2023-02-19T03:44:03.686Z,99911.38
2023-02-19T03:45:09.184Z,99915.97
2023-02-19T03:46:14.364Z,99915.38
2023-02-19T03:47:23.215Z,99914.56
2023-02-19T03:48:30.996Z,99919.69
2023-02-19T03:49:17.905Z,99918.34
2023-02-19T03:50:10.775Z,99921.25
2023-02-19T03:51:17.846Z,99921.53
2023-02-19T03:52:26.553Z,99921.38
2023-02-19T03:53:34.804Z,99923.88
2023-02-19T03:54:21.678Z,99924.72
2023-02-19T03:55:11.652Z,99915.66
2023-02-19T03:56:23.935Z,99922.34
2023-02-19T03:57:18.529Z,99917.81
2023-02-19T03:58:10.607Z,99921.16
2023-02-19T03:59:10.208Z,99916.94
2023-02-19T04:00:10.444Z,99910.78
2023-02-19T04:01:06.772Z,99898.38
2023-02-19T04:02:11.936Z,99900.44
2023-02-19T04:03:20.400Z,99896.75
2023-02-19T04:04:23.839Z,99898.00
2023-02-19T04:05:15.237Z,99892.50
2023-02-19T04:06:04.129Z,99899.97
2023-02-19T04:06:54.822Z,99901.84
2023-02-19T04:07:42.907Z,99900.81
2023-02-19T04:08:30.480Z,99901.28
2023-02-19T04:09:17.871Z,99910.59
2023-02-19T04:10:06.450Z,99902.69
2023-02-19T04:10:54.419Z,99905.38
2023-02-19T04:11:41.547Z,99905.19
2023-02-19T04:12:28.915Z,99906.50
2023-02-19T04:13:30.208Z,99914.53
2023-02-19T04:14:23.121Z,99915.09
2023-02-19T04:15:16.639Z,99908.56
2023-02-19T04:16:08.167Z,99909.31
2023-02-19T04:17:00.223Z,99901.47
2023-02-19T04:17:59.494Z,99906.62
2023-02-19T04:18:48.401Z,99907.66
2023-02-19T04:19:38.062Z,99910.25
2023-02-19T04:20:28.073Z,99908.56
2023-02-19T04:21:15.081Z,99904.00
2023-02-19T04:22:02.390Z,99904.41
2023-02-19T04:22:49.549Z,99901.78
2023-02-19T04:23:41.221Z,99905.97
2023-02-19T04:24:32.593Z,99906.44
2023-02-19T04:25:20.032Z,99908.09
2023-02-19T04:26:08.276Z,99907.34
2023-02-19T04:26:56.109Z,99918.00
2023-02-19T04:27:45.176Z,99901.03
2023-02-19T04:28:32.070Z,99901.47
2023-02-19T04:29:18.968Z,99903.53
2023-02-19T04:30:07.454Z,99901.69
2023-02-19T04:30:54.504Z,99895.88
2023-02-19T04:31:41.458Z,99887.63
2023-02-19T04:32:28.437Z,99895.16
2023-02-19T04:33:15.364Z,99900.75
2023-02-19T04:34:04.063Z,99895.81
2023-02-19T04:34:52.296Z,99903.09
2023-02-19T04:35:41.018Z,99904.84
2023-02-19T04:36:27.957Z,99906.06
2023-02-19T04:37:14.947Z,99898.50
2023-02-19T04:38:02.007Z,99899.56
2023-02-19T04:38:48.896Z,99901.03
2023-02-19T04:39:35.859Z,99899.75
2023-02-19T04:40:22.756Z,99905.78
2023-02-19T04:41:10.239Z,99905.16
2023-02-19T04:41:57.313Z,99900.81
2023-02-19T04:42:44.224Z,99897.94
2023-02-19T04:43:31.136Z,99908.28
2023-02-19T04:44:18.051Z,99905.50
2023-02-19T04:45:05.207Z,99906.16
2023-02-19T04:45:52.155Z,99901.78
2023-02-19T04:46:43.027Z,99901.78
2023-02-19T04:47:32.179Z,99908.50
2023-02-19T04:48:19.075Z,99905.41
2023-02-19T04:49:06.013Z,99905.59
2023-02-19T04:49:52.916Z,99910.16
2023-02-19T04:50:40.578Z,99903.34
2023-02-19T04:51:27.634Z,99902.13
2023-02-19T04:52:14.613Z,99903.16
2023-02-19T04:53:01.556Z,99901.03
2023-02-19T04:53:48.474Z,99895.81
2023-02-19T04:54:35.450Z,99907.28
2023-02-19T04:55:22.355Z,99901.13
2023-02-19T04:56:11.773Z,99897.00
2023-02-19T04:56:58.655Z,99898.84
2023-02-19T04:57:45.612Z,99889.41
2023-02-19T04:58:32.481Z,99889.34
2023-02-19T04:59:19.394Z,99887.72
2023-02-19T05:00:08.258Z,99882.72
2023-02-19T05:00:55.152Z,99885.78
2023-02-19T05:01:42.085Z,99891.47
2023-02-19T05:02:29.032Z,99890.88
2023-02-19T05:03:16.134Z,99890.38
2023-02-19T05:04:03.419Z,99882.69
2023-02-19T05:04:50.359Z,99888.22
2023-02-19T05:05:37.282Z,99893.19
2023-02-19T05:06:24.175Z,99888.63
2023-02-19T05:07:11.089Z,99885.66
2023-02-19T05:07:57.945Z,99894.22
2023-02-19T05:08:45.130Z,99891.41
2023-02-19T05:09:32.085Z,99894.16
2023-02-19T05:10:19.070Z,99897.00
2023-02-19T05:11:07.836Z,99897.06
2023-02-19T05:11:54.845Z,99898.88
2023-02-19T05:12:41.784Z,99895.47
2023-02-19T05:13:29.225Z,99905.00
2023-02-19T05:14:17.410Z,99902.25
2023-02-19T05:15:04.590Z,99901.13
2023-02-19T05:15:59.227Z,99895.41
2023-02-19T05:16:46.383Z,99898.66
2023-02-19T05:17:34.694Z,99906.41
2023-02-19T05:18:21.645Z,99904.72
2023-02-19T05:19:11.730Z,99901.06
2023-02-19T05:19:58.636Z,99894.81
2023-02-19T05:20:45.552Z,99902.87
2023-02-19T05:21:32.574Z,99897.72
2023-02-19T05:22:19.623Z,99894.81
2023-02-19T05:23:06.533Z,99895.84
2023-02-19T05:23:53.445Z,99899.78
2023-02-19T05:24:40.452Z,99892.88
2023-02-19T05:25:27.504Z,99895.13
2023-02-19T05:26:23.628Z,99897.38
2023-02-19T05:27:10.642Z,99889.91
2023-02-19T05:28:17.239Z,99894.47
2023-02-19T05:29:04.362Z,99893.00
2023-02-19T05:29:51.312Z,99891.78
2023-02-19T05:30:38.290Z,99890.53
2023-02-19T05:31:25.384Z,99897.13
2023-02-19T05:32:12.444Z,99899.25
2023-02-19T05:32:59.425Z,99893.06
2023-02-19T05:33:50.436Z,99895.53
2023-02-19T05:34:37.386Z,99898.66
2023-02-19T05:35:24.338Z,99901.47
2023-02-19T05:36:13.245Z,99898.16
2023-02-19T05:37:00.217Z,99888.59
2023-02-19T05:37:47.206Z,99893.59
2023-02-19T05:38:34.314Z,99892.75
2023-02-19T05:39:21.343Z,99899.00
2023-02-19T05:40:08.616Z,99889.47
2023-02-19T05:40:55.467Z,99882.00
2023-02-19T05:41:42.447Z,99891.12
2023-02-19T05:42:29.428Z,99889.53
2023-02-19T05:43:16.628Z,99884.56
2023-02-19T05:44:03.570Z,99886.00
2023-02-19T05:44:50.523Z,99890.94
2023-02-19T05:45:37.487Z,99887.53
2023-02-19T05:46:27.603Z,99892.16
2023-02-19T05:47:14.639Z,99884.16
2023-02-19T05:48:01.743Z,99885.00
2023-02-19T05:48:49.738Z,99888.09
2023-02-19T05:49:36.699Z,99895.69
2023-02-19T05:50:23.917Z,99890.75
2023-02-19T05:51:16.021Z,99891.94
2023-02-19T05:52:03.107Z,99892.09
2023-02-19T05:52:50.093Z,99896.22
2023-02-19T05:53:37.439Z,99894.72
2023-02-19T05:54:24.466Z,99895.19
2023-02-19T05:55:12.093Z,99887.25
2023-02-19T05:55:59.587Z,99894.34
2023-02-19T05:56:46.700Z,99886.87
2023-02-19T05:57:33.659Z,99896.25
2023-02-19T05:58:20.583Z,99901.63
2023-02-19T05:59:21.686Z,99913.50
2023-02-19T06:00:11.221Z,99908.31
2023-02-19T06:00:58.233Z,99916.03
2023-02-19T06:01:45.606Z,99914.81
2023-02-19T06:02:32.524Z,99911.44
2023-02-19T06:03:19.577Z,99919.44
2023-02-19T06:04:06.782Z,99916.31
2023-02-19T06:04:53.899Z,99909.63
2023-02-19T06:05:40.924Z,99912.41
2023-02-19T06:06:27.981Z,99915.47
2023-02-19T06:07:14.924Z,99917.25
2023-02-19T06:08:01.823Z,99916.03
2023-02-19T06:08:50.483Z,99912.50
2023-02-19T06:09:37.500Z,99915.31
2023-02-19T06:10:24.501Z,99911.81
2023-02-19T06:11:11.713Z,99902.81
2023-02-19T06:11:58.862Z,99908.66
2023-02-19T06:12:45.810Z,99906.44
2023-02-19T06:13:32.670Z,99905.59
2023-02-19T06:14:19.620Z,99910.25
2023-02-19T06:15:07.003Z,99901.87
2023-02-19T06:15:53.980Z,99909.25
2023-02-19T06:16:41.188Z,99915.00
2023-02-19T06:17:28.114Z,99913.62
2023-02-19T06:18:15.041Z,99907.78
2023-02-19T06:19:05.393Z,99923.56
2023-02-19T06:19:52.335Z,99910.50
2023-02-19T06:20:39.347Z,99905.59
2023-02-19T06:21:26.250Z,99909.63
2023-02-19T06:22:15.211Z,99902.16
2023-02-19T06:23:02.148Z,99909.63
2023-02-19T06:23:49.124Z,99905.25
2023-02-19T06:24:37.799Z,99911.53
2023-02-19T06:25:24.721Z,99912.34
2023-02-19T06:26:18.368Z,99913.03
2023-02-19T06:27:09.550Z,99916.87
2023-02-19T06:27:56.531Z,99912.69
2023-02-19T06:28:43.817Z,99907.50
2023-02-19T06:29:32.762Z,99913.03
2023-02-19T06:30:19.832Z,99910.66
2023-02-19T06:31:07.422Z,99915.34
2023-02-19T06:31:54.514Z,99908.50
2023-02-19T06:32:41.525Z,99913.88
2023-02-19T06:33:28.714Z,99906.84
2023-02-19T06:34:15.644Z,99909.81
2023-02-19T06:35:02.755Z,99912.19
2023-02-19T06:35:49.674Z,99905.62
2023-02-19T06:36:36.575Z,99916.56
2023-02-19T06:37:23.511Z,99913.78
2023-02-19T06:38:10.387Z,99910.88
2023-02-19T06:39:00.445Z,99915.75
2023-02-19T06:39:47.422Z,99914.03
2023-02-19T06:40:34.296Z,99920.94
2023-02-19T06:41:21.173Z,99923.31
2023-02-19T06:42:08.048Z,99916.44
2023-02-19T06:42:55.008Z,99911.69
2023-02-19T06:43:42.456Z,99907.13
2023-02-19T06:44:29.481Z,99914.72
2023-02-19T06:45:16.532Z,99914.91
2023-02-19T06:46:05.491Z,99915.25
2023-02-19T06:46:55.567Z,99913.06
2023-02-19T06:47:42.709Z,99912.94
2023-02-19T06:48:30.794Z,99909.28
2023-02-19T06:49:18.081Z,99911.06
2023-02-19T06:50:05.256Z,99906.50
2023-02-19T06:50:52.230Z,99909.03
2023-02-19T06:51:39.357Z,99911.34
2023-02-19T06:52:27.345Z,99910.34
2023-02-19T06:53:14.336Z,99910.00
2023-02-19T06:54:04.682Z,99910.37
2023-02-19T06:54:51.606Z,99919.66
2023-02-19T06:55:40.637Z,99915.56
2023-02-19T06:56:28.978Z,99911.69
2023-02-19T06:57:15.996Z,99910.31
2023-02-19T06:58:02.832Z,99914.88
2023-02-19T06:58:49.701Z,99916.22
2023-02-19T06:59:36.645Z,99915.72
2023-02-19T07:00:23.659Z,99906.97
2023-02-19T07:01:12.470Z,99920.25
2023-02-19T07:01:59.635Z,99917.78
2023-02-19T07:02:46.537Z,99920.50
2023-02-19T07:03:33.495Z,99924.87
2023-02-19T07:04:20.504Z,99922.84
2023-02-19T07:05:07.716Z,99920.50
2023-02-19T07:05:54.702Z,99921.31
2023-02-19T07:06:41.749Z,99924.13
2023-02-19T07:07:28.638Z,99936.06
2023-02-19T07:08:17.569Z,99932.37
2023-02-19T07:09:05.803Z,99928.00
2023-02-19T07:09:52.855Z,99931.87
2023-02-19T07:10:40.001Z,99934.88
2023-02-19T07:11:30.364Z,99937.94
2023-02-19T07:12:17.265Z,99937.28
2023-02-19T07:13:04.254Z,99945.16
2023-02-19T07:14:01.122Z,99949.06
2023-02-19T07:14:48.475Z,99949.81
2023-02-19T07:15:35.395Z,99942.44
2023-02-19T07:16:22.640Z,99952.31
2023-02-19T07:17:09.581Z,99943.16
2023-02-19T07:17:56.516Z,99947.19
2023-02-19T07:18:43.530Z,99945.66
2023-02-19T07:19:30.482Z,99948.56
2023-02-19T07:20:17.486Z,99949.72
2023-02-19T07:21:05.283Z,99955.47
2023-02-19T07:21:52.271Z,99949.91
2023-02-19T07:22:39.205Z,99959.03
2023-02-19T07:23:26.115Z,99961.28
2023-02-19T07:24:13.158Z,99956.72
2023-02-19T07:25:00.010Z,99956.19
2023-02-19T07:25:46.918Z,99950.47
2023-02-19T07:26:33.816Z,99959.03
2023-02-19T07:27:20.778Z,99944.56
2023-02-19T07:28:07.893Z,99948.59
2023-02-19T07:28:54.792Z,99953.31
2023-02-19T07:29:41.743Z,99954.19
2023-02-19T07:30:28.735Z,99953.03
2023-02-19T07:31:16.486Z,99951.22
2023-02-19T07:32:03.637Z,99951.75
2023-02-19T07:32:50.599Z,99950.03
2023-02-19T07:33:37.756Z,99946.63
2023-02-19T07:34:24.720Z,99950.53
2023-02-19T07:35:11.860Z,99955.22
2023-02-19T07:35:58.903Z,99952.69
2023-02-19T07:36:45.832Z,99946.34
2023-02-19T07:37:32.735Z,99946.19
2023-02-19T07:38:21.143Z,99941.63
2023-02-19T07:39:10.057Z,99933.88
2023-02-19T07:39:57.121Z,99931.50
2023-02-19T07:40:57.452Z,99931.69
2023-02-19T07:41:44.384Z,99928.81
2023-02-19T07:42:31.271Z,99932.37
2023-02-19T07:43:18.515Z,99935.44
2023-02-19T07:44:05.767Z,99940.13
2023-02-19T07:44:52.618Z,99934.88
2023-02-19T07:45:39.570Z,99930.72
2023-02-19T07:46:26.736Z,99931.69
2023-02-19T07:47:13.614Z,99925.16
2023-02-19T07:48:00.484Z,99930.19
2023-02-19T07:48:47.433Z,99928.03
2023-02-19T07:49:34.514Z,99923.63
2023-02-19T07:50:21.424Z,99929.53
2023-02-19T07:51:12.475Z,99931.03
2023-02-19T07:51:59.654Z,99931.69
2023-02-19T07:52:46.575Z,99926.16
2023-02-19T07:53:34.806Z,99934.75
2023-02-19T07:54:21.747Z,99931.56
2023-02-19T07:55:08.696Z,99923.97
2023-02-19T07:56:00.258Z,99923.09
2023-02-19T07:56:47.207Z,99933.03
2023-02-19T07:57:34.106Z,99930.72
2023-02-19T07:58:21.093Z,99926.00
2023-02-19T07:59:08.116Z,99930.03
2023-02-19T07:59:55.115Z,99924.31
2023-02-19T08:00:42.213Z,99925.34
2023-02-19T08:02:07.225Z,99920.62
2023-02-19T08:03:00.215Z,99923.81
2023-02-19T08:03:50.342Z,99916.03
2023-02-19T08:04:37.489Z,99907.75
2023-02-19T08:05:24.588Z,99915.50
2023-02-19T08:06:12.698Z,99920.50
2023-02-19T08:06:59.656Z,99927.59
2023-02-19T08:07:46.618Z,99928.28
2023-02-19T08:08:33.653Z,99926.56
2023-02-19T08:09:20.557Z,99926.44
2023-02-19T08:10:26.860Z,99930.63
2023-02-19T08:11:32.142Z,99933.25
2023-02-19T08:12:37.697Z,99940.97
2023-02-19T08:13:25.826Z,99941.25
2023-02-19T08:14:12.739Z,99942.59
2023-02-19T08:14:59.634Z,99955.53
2023-02-19T08:15:47.428Z,99939.09
2023-02-19T08:16:42.916Z,99938.41
2023-02-19T08:17:31.422Z,99957.94
2023-02-19T08:18:20.169Z,99958.75
2023-02-19T08:19:07.064Z,99956.75
2023-02-19T08:19:53.957Z,99945.31
2023-02-19T08:20:41.063Z,99935.06
2023-02-19T08:21:28.072Z,99946.88
2023-02-19T08:22:16.493Z,99946.88
2023-02-19T08:23:03.367Z,99945.19
2023-02-19T08:23:51.254Z,99969.56
2023-02-19T08:24:43.097Z,99987.88
2023-02-19T08:25:30.366Z,99984.69
2023-02-19T08:26:17.296Z,99970.19
2023-02-19T08:27:04.358Z,99965.50
2023-02-19T08:27:51.315Z,99962.66
2023-02-19T08:28:38.267Z,99963.19
2023-02-19T08:29:25.287Z,99971.47
2023-02-19T08:30:12.492Z,99968.56
2023-02-19T08:31:06.172Z,99967.22
2023-02-19T08:31:53.182Z,99967.38
2023-02-19T08:32:40.135Z,99962.16
2023-02-19T08:33:27.103Z,99969.22
2023-02-19T08:34:14.013Z,99972.44
2023-02-19T08:35:00.906Z,99972.25
2023-02-19T08:35:48.026Z,99972.91
2023-02-19T08:36:34.926Z,99975.12
2023-02-19T08:37:21.918Z,99976.50
2023-02-19T08:38:09.784Z,99964.91
2023-02-19T08:38:56.781Z,99957.84
2023-02-19T08:39:43.713Z,99950.44
2023-02-19T08:40:30.825Z,99967.44
2023-02-19T08:41:17.854Z,99972.63
2023-02-19T08:42:04.997Z,99975.31
2023-02-19T08:42:51.999Z,99969.59
2023-02-19T08:43:39.607Z,99977.16
2023-02-19T08:44:26.499Z,99985.91
2023-02-19T08:45:13.417Z,99990.47
2023-02-19T08:46:00.386Z,99984.06
2023-02-19T08:46:47.391Z,99979.69
2023-02-19T08:47:38.404Z,99982.72
2023-02-19T08:48:25.358Z,99994.31
2023-02-19T08:49:12.273Z,99988.44
2023-02-19T08:49:59.235Z,99990.94
2023-02-19T08:50:46.205Z,100002.22
2023-02-19T08:51:33.092Z,99984.03
2023-02-19T08:52:20.022Z,99983.34
2023-02-19T08:53:07.351Z,99987.41
2023-02-19T08:53:54.322Z,99993.75
2023-02-19T08:54:41.289Z,99993.94
2023-02-19T08:55:28.843Z,99984.22
2023-02-19T08:56:17.685Z,99983.53
2023-02-19T08:57:05.449Z,99981.34
2023-02-19T08:57:52.431Z,99975.09
2023-02-19T08:58:41.844Z,99981.97
2023-02-19T08:59:29.629Z,99985.53
2023-02-19T09:00:16.890Z,99972.72
2023-02-19T09:01:08.205Z,99965.97
2023-02-19T09:01:55.282Z,99964.22
2023-02-19T09:02:42.293Z,99964.63
2023-02-19T09:03:29.295Z,99959.31
2023-02-19T09:04:16.239Z,99952.12
2023-02-19T09:05:03.448Z,99967.72
2023-02-19T09:05:50.350Z,99965.34
2023-02-19T09:06:39.788Z,99964.66
2023-02-19T09:07:27.532Z,99964.00
2023-02-19T09:08:14.637Z,99959.12
2023-02-19T09:09:01.488Z,99952.75
2023-02-19T09:09:48.398Z,99948.81
2023-02-19T09:10:35.311Z,99937.81
2023-02-19T09:11:22.361Z,99946.78
2023-02-19T09:12:10.912Z,99950.16
2023-02-19T09:12:57.858Z,99947.25
2023-02-19T09:13:45.164Z,99953.94
2023-02-19T09:14:33.380Z,99941.63
2023-02-19T09:15:20.370Z,99945.88
2023-02-19T09:16:07.596Z,99948.06
2023-02-19T09:16:54.577Z,99941.22
2023-02-19T09:17:41.469Z,99938.69
2023-02-19T09:18:28.429Z,99948.28
2023-02-19T09:19:15.279Z,99945.47
2023-02-19T09:20:02.357Z,99928.12
2023-02-19T09:20:49.269Z,99928.91
2023-02-19T09:21:36.371Z,99932.19
2023-02-19T09:22:23.272Z,99929.66
2023-02-19T09:23:10.150Z,99940.66
2023-02-19T09:23:57.035Z,99931.94
2023-02-19T09:24:44.643Z,99927.66
2023-02-19T09:25:31.563Z,99927.03
2023-02-19T09:26:18.618Z,99927.03
2023-02-19T09:27:05.554Z,99927.94
2023-02-19T09:27:55.971Z,99931.34
2023-02-19T09:28:43.367Z,99926.34
2023-02-19T09:29:31.216Z,99923.53
2023-02-19T09:30:18.277Z,99923.41
2023-02-19T09:31:11.520Z,99932.19
2023-02-19T09:32:00.236Z,99929.62
2023-02-19T09:32:47.243Z,99933.34
2023-02-19T09:33:34.334Z,99928.88
2023-02-19T09:34:21.259Z,99924.41
2023-02-19T09:35:08.249Z,99926.59
2023-02-19T09:35:55.173Z,99918.97
2023-02-19T09:36:42.191Z,99914.88
2023-02-19T09:37:29.644Z,99919.97
2023-02-19T09:38:16.583Z,99917.34
2023-02-19T09:39:06.744Z,99912.47
2023-02-19T09:39:54.578Z,99913.94
2023-02-19T09:40:41.564Z,99905.22
2023-02-19T09:41:34.032Z,99905.31
2023-02-19T09:42:30.479Z,99904.53